sensor_id;sensor_type;location;lat;lon;timestamp;temperature;humidity
35593;DHT22;64447;52.140;5.602;2023-07-31T00:01:47;16.60;99.90
35593;DHT22;64447;52.140;5.602;2023-07-31T00:07:16;16.70;99.90
35593;DHT22;64447;52.140;5.602;2023-07-31T00:09:41;16.90;99.90
35593;DHT22;64447;52.140;5.602;2023-07-31T00:12:07;17.00;99.90
35593;DHT22;64447;52.140;5.602;2023-07-31T00:14:32;17.00;99.90
35593;DHT22;64447;52.140;5.602;2023-07-31T00:16:58;16.90;99.90
35593;DHT22;64447;52.140;5.602;2023-07-31T00:22:26;16.80;99.90
35593;DHT22;64447;52.140;5.602;2023-07-31T00:24:52;16.60;99.90
35593;DHT22;64447;52.140;5.602;2023-07-31T00:27:17;16.60;99.90
35593;DHT22;64447;52.140;5.602;2023-07-31T00:29:43;16.50;99.90
35593;DHT22;64447;52.140;5.602;2023-07-31T00:32:08;16.40;99.90
35593;DHT22;64447;52.140;5.602;2023-07-31T00:37:37;16.70;99.90
35593;DHT22;64447;52.140;5.602;2023-07-31T00:40:02;17.00;99.90
35593;DHT22;64447;52.140;5.602;2023-07-31T00:42:28;16.80;99.90
35593;DHT22;64447;52.140;5.602;2023-07-31T00:44:54;16.80;99.90
35593;DHT22;64447;52.140;5.602;2023-07-31T00:47:19;17.00;99.90
35593;DHT22;64447;52.140;5.602;2023-07-31T00:52:48;17.10;99.90
35593;DHT22;64447;52.140;5.602;2023-07-31T00:55:14;17.10;99.90
35593;DHT22;64447;52.140;5.602;2023-07-31T00:57:40;17.00;99.90
35593;DHT22;64447;52.140;5.602;2023-07-31T01:00:06;16.90;99.90
35593;DHT22;64447;52.140;5.602;2023-07-31T01:02:32;16.80;99.90
35593;DHT22;64447;52.140;5.602;2023-07-31T01:08:31;16.80;99.90
35593;DHT22;64447;52.140;5.602;2023-07-31T01:11:00;16.80;99.90
35593;DHT22;64447;52.140;5.602;2023-07-31T01:13:27;16.80;99.90
35593;DHT22;64447;52.140;5.602;2023-07-31T01:15:53;16.70;99.90
35593;DHT22;64447;52.140;5.602;2023-07-31T01:18:19;16.70;99.90
35593;DHT22;64447;52.140;5.602;2023-07-31T01:20:44;16.80;99.90
35593;DHT22;64447;52.140;5.602;2023-07-31T01:31:09;17.00;99.90
35593;DHT22;64447;52.140;5.602;2023-07-31T01:33:35;17.00;99.90
35593;DHT22;64447;52.140;5.602;2023-07-31T01:36:01;17.00;99.90
35593;DHT22;64447;52.140;5.602;2023-07-31T01:38:27;17.10;99.90
35593;DHT22;64447;52.140;5.602;2023-07-31T01:40:53;17.10;99.90
35593;DHT22;64447;52.140;5.602;2023-07-31T01:43:19;17.10;99.90
35593;DHT22;64447;52.140;5.602;2023-07-31T01:45:44;17.10;99.90
35593;DHT22;64447;52.140;5.602;2023-07-31T01:48:10;17.20;99.90
35593;DHT22;64447;52.140;5.602;2023-07-31T01:50:35;17.10;99.90
35593;DHT22;64447;52.140;5.602;2023-07-31T01:53:01;17.00;99.90
35593;DHT22;64447;52.140;5.602;2023-07-31T01:55:26;17.00;99.90
35593;DHT22;64447;52.140;5.602;2023-07-31T01:57:52;17.00;99.90
35593;DHT22;64447;52.140;5.602;2023-07-31T02:00:18;17.10;99.90
35593;DHT22;64447;52.140;5.602;2023-07-31T02:02:44;17.20;99.90
35593;DHT22;64447;52.140;5.602;2023-07-31T02:08:12;17.30;99.90
35593;DHT22;64447;52.140;5.602;2023-07-31T02:10:38;17.30;99.90
35593;DHT22;64447;52.140;5.602;2023-07-31T02:13:03;17.20;99.90
35593;DHT22;64447;52.140;5.602;2023-07-31T02:15:32;17.30;99.90
35593;DHT22;64447;52.140;5.602;2023-07-31T02:17:57;17.10;99.90
35593;DHT22;64447;52.140;5.602;2023-07-31T02:20:23;17.20;99.90
35593;DHT22;64447;52.140;5.602;2023-07-31T02:22:48;17.10;99.90
35593;DHT22;64447;52.140;5.602;2023-07-31T02:25:14;17.10;99.90
35593;DHT22;64447;52.140;5.602;2023-07-31T02:27:39;17.00;99.90
35593;DHT22;64447;52.140;5.602;2023-07-31T02:30:05;17.00;99.90
35593;DHT22;64447;52.140;5.602;2023-07-31T02:32:30;16.90;99.90
35593;DHT22;64447;52.140;5.602;2023-07-31T02:37:59;16.90;99.90
35593;DHT22;64447;52.140;5.602;2023-07-31T02:40:25;16.90;99.90
35593;DHT22;64447;52.140;5.602;2023-07-31T02:42:50;16.90;99.90
35593;DHT22;64447;52.140;5.602;2023-07-31T02:45:15;16.90;99.90
35593;DHT22;64447;52.140;5.602;2023-07-31T02:47:41;16.90;99.90
35593;DHT22;64447;52.140;5.602;2023-07-31T02:53:09;16.90;99.90
35593;DHT22;64447;52.140;5.602;2023-07-31T02:55:35;16.90;99.90
35593;DHT22;64447;52.140;5.602;2023-07-31T02:58:00;17.00;99.90
35593;DHT22;64447;52.140;5.602;2023-07-31T03:00:26;17.00;99.90
35593;DHT22;64447;52.140;5.602;2023-07-31T03:02:51;17.00;99.90
35593;DHT22;64447;52.140;5.602;2023-07-31T03:08:20;17.00;99.90
35593;DHT22;64447;52.140;5.602;2023-07-31T03:10:45;16.90;99.90
35593;DHT22;64447;52.140;5.602;2023-07-31T03:13:11;16.90;99.90
35593;DHT22;64447;52.140;5.602;2023-07-31T03:15:36;16.90;99.90
35593;DHT22;64447;52.140;5.602;2023-07-31T03:18:01;16.90;99.90
35593;DHT22;64447;52.140;5.602;2023-07-31T03:23:30;17.00;99.90
35593;DHT22;64447;52.140;5.602;2023-07-31T03:25:56;16.90;99.90
35593;DHT22;64447;52.140;5.602;2023-07-31T03:28:22;16.90;99.90
35593;DHT22;64447;52.140;5.602;2023-07-31T03:30:48;16.90;99.90
35593;DHT22;64447;52.140;5.602;2023-07-31T03:33:13;17.00;99.90
35593;DHT22;64447;52.140;5.602;2023-07-31T03:39:01;17.30;99.90
35593;DHT22;64447;52.140;5.602;2023-07-31T03:41:26;17.40;99.90
35593;DHT22;64447;52.140;5.602;2023-07-31T03:43:52;17.40;99.90
35593;DHT22;64447;52.140;5.602;2023-07-31T03:46:18;17.40;99.90
35593;DHT22;64447;52.140;5.602;2023-07-31T03:48:43;17.30;99.90
35593;DHT22;64447;52.140;5.602;2023-07-31T03:51:09;17.20;99.90
35593;DHT22;64447;52.140;5.602;2023-07-31T03:53:35;17.20;99.90
35593;DHT22;64447;52.140;5.602;2023-07-31T03:56:00;17.30;99.90
35593;DHT22;64447;52.140;5.602;2023-07-31T03:58:26;17.40;99.90
35593;DHT22;64447;52.140;5.602;2023-07-31T04:00:51;17.20;99.90
35593;DHT22;64447;52.140;5.602;2023-07-31T04:03:17;17.30;99.90
35593;DHT22;64447;52.140;5.602;2023-07-31T04:09:05;17.40;99.90
35593;DHT22;64447;52.140;5.602;2023-07-31T04:11:30;17.50;99.90
35593;DHT22;64447;52.140;5.602;2023-07-31T04:13:56;17.50;99.90
35593;DHT22;64447;52.140;5.602;2023-07-31T04:16:21;17.50;99.90
35593;DHT22;64447;52.140;5.602;2023-07-31T04:18:47;17.60;99.90
35593;DHT22;64447;52.140;5.602;2023-07-31T04:21:13;17.70;99.90
35593;DHT22;64447;52.140;5.602;2023-07-31T04:23:38;17.70;99.90
35593;DHT22;64447;52.140;5.602;2023-07-31T04:26:04;17.70;99.90
35593;DHT22;64447;52.140;5.602;2023-07-31T04:28:29;17.50;99.90
35593;DHT22;64447;52.140;5.602;2023-07-31T04:30:57;17.40;99.90
35593;DHT22;64447;52.140;5.602;2023-07-31T04:33:22;17.40;99.90
35593;DHT22;64447;52.140;5.602;2023-07-31T04:38:51;17.10;99.90
35593;DHT22;64447;52.140;5.602;2023-07-31T04:41:17;16.90;99.90
35593;DHT22;64447;52.140;5.602;2023-07-31T04:43:42;17.00;99.90
35593;DHT22;64447;52.140;5.602;2023-07-31T04:46:07;17.00;99.90
35593;DHT22;64447;52.140;5.602;2023-07-31T04:48:33;16.90;99.90
35593;DHT22;64447;52.140;5.602;2023-07-31T04:54:01;16.80;99.90
35593;DHT22;64447;52.140;5.602;2023-07-31T04:56:27;16.80;99.90
35593;DHT22;64447;52.140;5.602;2023-07-31T04:58:52;16.70;99.90
35593;DHT22;64447;52.140;5.602;2023-07-31T05:01:17;16.80;99.90
35593;DHT22;64447;52.140;5.602;2023-07-31T05:03:43;16.80;99.90
35593;DHT22;64447;52.140;5.602;2023-07-31T05:09:11;16.80;99.90
35593;DHT22;64447;52.140;5.602;2023-07-31T05:11:37;16.60;99.90
35593;DHT22;64447;52.140;5.602;2023-07-31T05:14:02;16.60;99.90
35593;DHT22;64447;52.140;5.602;2023-07-31T05:16:28;16.50;99.90
35593;DHT22;64447;52.140;5.602;2023-07-31T05:18:53;16.50;99.90
35593;DHT22;64447;52.140;5.602;2023-07-31T05:24:22;16.60;99.90
35593;DHT22;64447;52.140;5.602;2023-07-31T05:26:47;16.60;99.90
35593;DHT22;64447;52.140;5.602;2023-07-31T05:29:13;16.50;99.90
35593;DHT22;64447;52.140;5.602;2023-07-31T05:31:38;16.50;99.90
35593;DHT22;64447;52.140;5.602;2023-07-31T05:34:04;16.50;99.90
35593;DHT22;64447;52.140;5.602;2023-07-31T05:39:32;16.50;99.90
35593;DHT22;64447;52.140;5.602;2023-07-31T05:41:58;16.30;99.90
35593;DHT22;64447;52.140;5.602;2023-07-31T05:44:23;16.30;99.90
35593;DHT22;64447;52.140;5.602;2023-07-31T05:46:49;16.30;99.90
35593;DHT22;64447;52.140;5.602;2023-07-31T05:49:14;16.40;99.90
35593;DHT22;64447;52.140;5.602;2023-07-31T05:54:42;16.40;99.90
35593;DHT22;64447;52.140;5.602;2023-07-31T05:57:08;16.40;99.90
35593;DHT22;64447;52.140;5.602;2023-07-31T05:59:33;16.30;99.90
35593;DHT22;64447;52.140;5.602;2023-07-31T06:01:59;16.30;99.90
35593;DHT22;64447;52.140;5.602;2023-07-31T06:04:24;16.30;99.90
35593;DHT22;64447;52.140;5.602;2023-07-31T06:09:53;16.40;99.90
35593;DHT22;64447;52.140;5.602;2023-07-31T06:12:20;16.50;99.90
35593;DHT22;64447;52.140;5.602;2023-07-31T06:14:45;16.50;99.90
35593;DHT22;64447;52.140;5.602;2023-07-31T06:17:11;16.60;99.90
35593;DHT22;64447;52.140;5.602;2023-07-31T06:19:36;16.60;99.90
35593;DHT22;64447;52.140;5.602;2023-07-31T06:22:02;16.50;99.90
35593;DHT22;64447;52.140;5.602;2023-07-31T06:24:28;16.50;99.90
35593;DHT22;64447;52.140;5.602;2023-07-31T06:26:53;16.60;99.90
35593;DHT22;64447;52.140;5.602;2023-07-31T06:29:19;16.60;99.90
35593;DHT22;64447;52.140;5.602;2023-07-31T06:31:44;16.60;99.90
35593;DHT22;64447;52.140;5.602;2023-07-31T06:34:10;16.60;99.90
35593;DHT22;64447;52.140;5.602;2023-07-31T06:39:38;16.50;99.90
35593;DHT22;64447;52.140;5.602;2023-07-31T06:42:04;16.50;99.90
35593;DHT22;64447;52.140;5.602;2023-07-31T06:44:29;16.60;99.90
35593;DHT22;64447;52.140;5.602;2023-07-31T06:46:55;16.60;99.90
35593;DHT22;64447;52.140;5.602;2023-07-31T06:49:21;16.60;99.90
35593;DHT22;64447;52.140;5.602;2023-07-31T06:57:33;16.60;99.90
35593;DHT22;64447;52.140;5.602;2023-07-31T06:59:59;16.60;99.90
35593;DHT22;64447;52.140;5.602;2023-07-31T07:02:24;16.70;99.90
35593;DHT22;64447;52.140;5.602;2023-07-31T07:04:50;16.70;99.90
35593;DHT22;64447;52.140;5.602;2023-07-31T07:10:19;16.70;99.90
35593;DHT22;64447;52.140;5.602;2023-07-31T07:12:44;16.60;99.90
35593;DHT22;64447;52.140;5.602;2023-07-31T07:15:10;16.80;99.90
35593;DHT22;64447;52.140;5.602;2023-07-31T07:17:35;16.80;99.90
35593;DHT22;64447;52.140;5.602;2023-07-31T07:20:01;16.80;99.90
35593;DHT22;64447;52.140;5.602;2023-07-31T07:22:26;16.90;99.90
35593;DHT22;64447;52.140;5.602;2023-07-31T07:24:52;16.80;99.90
35593;DHT22;64447;52.140;5.602;2023-07-31T07:27:18;16.90;99.90
35593;DHT22;64447;52.140;5.602;2023-07-31T07:29:43;16.90;99.90
35593;DHT22;64447;52.140;5.602;2023-07-31T07:32:09;16.80;99.90
35593;DHT22;64447;52.140;5.602;2023-07-31T07:34:34;16.90;99.90
35593;DHT22;64447;52.140;5.602;2023-07-31T07:40:22;16.90;99.90
35593;DHT22;64447;52.140;5.602;2023-07-31T07:42:47;17.00;99.90
35593;DHT22;64447;52.140;5.602;2023-07-31T07:45:13;17.20;99.90
35593;DHT22;64447;52.140;5.602;2023-07-31T07:47:41;17.10;99.90
35593;DHT22;64447;52.140;5.602;2023-07-31T07:50:07;17.30;99.90
35593;DHT22;64447;52.140;5.602;2023-07-31T07:55:54;17.40;99.90
35593;DHT22;64447;52.140;5.602;2023-07-31T07:58:20;17.50;99.90
35593;DHT22;64447;52.140;5.602;2023-07-31T08:00:50;17.40;99.90
35593;DHT22;64447;52.140;5.602;2023-07-31T08:03:16;17.50;99.90
35593;DHT22;64447;52.140;5.602;2023-07-31T08:05:42;17.50;99.90
35593;DHT22;64447;52.140;5.602;2023-07-31T08:08:08;17.50;99.90
35593;DHT22;64447;52.140;5.602;2023-07-31T08:10:33;17.60;99.90
35593;DHT22;64447;52.140;5.602;2023-07-31T08:12:59;17.70;99.90
35593;DHT22;64447;52.140;5.602;2023-07-31T08:15:24;17.70;99.90
35593;DHT22;64447;52.140;5.602;2023-07-31T08:17:50;17.70;99.90
35593;DHT22;64447;52.140;5.602;2023-07-31T08:20:15;17.70;99.90
35593;DHT22;64447;52.140;5.602;2023-07-31T08:26:03;17.90;99.90
35593;DHT22;64447;52.140;5.602;2023-07-31T08:28:29;18.00;99.90
35593;DHT22;64447;52.140;5.602;2023-07-31T08:30:54;18.00;99.90
35593;DHT22;64447;52.140;5.602;2023-07-31T08:33:20;17.90;99.90
35593;DHT22;64447;52.140;5.602;2023-07-31T08:35:45;17.80;99.90
35593;DHT22;64447;52.140;5.602;2023-07-31T08:38:12;17.80;99.90
35593;DHT22;64447;52.140;5.602;2023-07-31T08:40:37;17.90;99.90
35593;DHT22;64447;52.140;5.602;2023-07-31T08:43:04;17.90;99.90
35593;DHT22;64447;52.140;5.602;2023-07-31T08:45:30;17.90;99.90
35593;DHT22;64447;52.140;5.602;2023-07-31T08:47:57;17.90;99.90
35593;DHT22;64447;52.140;5.602;2023-07-31T08:50:24;18.00;99.90
35593;DHT22;64447;52.140;5.602;2023-07-31T08:56:11;18.10;99.90
35593;DHT22;64447;52.140;5.602;2023-07-31T08:58:38;18.20;99.90
35593;DHT22;64447;52.140;5.602;2023-07-31T09:01:04;18.20;99.90
35593;DHT22;64447;52.140;5.602;2023-07-31T09:03:34;18.20;99.90
35593;DHT22;64447;52.140;5.602;2023-07-31T09:06:02;18.20;99.90
35593;DHT22;64447;52.140;5.602;2023-07-31T09:08:31;18.10;99.90
35593;DHT22;64447;52.140;5.602;2023-07-31T09:11:00;18.10;99.90
35593;DHT22;64447;52.140;5.602;2023-07-31T09:13:28;18.20;99.90
35593;DHT22;64447;52.140;5.602;2023-07-31T09:15:55;18.20;99.90
35593;DHT22;64447;52.140;5.602;2023-07-31T09:18:20;18.20;99.90
35593;DHT22;64447;52.140;5.602;2023-07-31T09:21:06;18.20;99.90
35593;DHT22;64447;52.140;5.602;2023-07-31T09:23:45;18.30;99.90
35593;DHT22;64447;52.140;5.602;2023-07-31T09:26:29;18.50;99.90
35593;DHT22;64447;52.140;5.602;2023-07-31T09:28:55;18.50;99.90
35593;DHT22;64447;52.140;5.602;2023-07-31T09:31:42;18.70;99.90
35593;DHT22;64447;52.140;5.602;2023-07-31T09:34:09;18.60;99.90
35593;DHT22;64447;52.140;5.602;2023-07-31T09:36:49;18.60;99.90
35593;DHT22;64447;52.140;5.602;2023-07-31T09:39:17;18.70;99.90
35593;DHT22;64447;52.140;5.602;2023-07-31T09:41:45;18.60;99.90
35593;DHT22;64447;52.140;5.602;2023-07-31T09:44:11;18.80;99.90
35593;DHT22;64447;52.140;5.602;2023-07-31T09:46:37;18.60;99.90
35593;DHT22;64447;52.140;5.602;2023-07-31T09:49:07;18.50;99.90
35593;DHT22;64447;52.140;5.602;2023-07-31T09:51:35;18.50;99.90
35593;DHT22;64447;52.140;5.602;2023-07-31T09:54:11;18.60;99.90
35593;DHT22;64447;52.140;5.602;2023-07-31T09:56:44;18.80;99.90
35593;DHT22;64447;52.140;5.602;2023-07-31T09:59:15;18.70;99.90
35593;DHT22;64447;52.140;5.602;2023-07-31T10:01:43;18.60;99.90
35593;DHT22;64447;52.140;5.602;2023-07-31T10:04:10;18.80;99.90
35593;DHT22;64447;52.140;5.602;2023-07-31T10:06:37;18.80;99.90
35593;DHT22;64447;52.140;5.602;2023-07-31T10:09:06;18.70;99.90
35593;DHT22;64447;52.140;5.602;2023-07-31T10:11:42;18.80;99.90
35593;DHT22;64447;52.140;5.602;2023-07-31T10:14:10;18.80;99.90
35593;DHT22;64447;52.140;5.602;2023-07-31T10:16:38;18.80;99.90
35593;DHT22;64447;52.140;5.602;2023-07-31T10:19:05;19.00;99.90
35593;DHT22;64447;52.140;5.602;2023-07-31T10:21:32;18.90;99.90
35593;DHT22;64447;52.140;5.602;2023-07-31T10:24:04;19.10;99.90
35593;DHT22;64447;52.140;5.602;2023-07-31T10:26:32;19.00;99.90
35593;DHT22;64447;52.140;5.602;2023-07-31T10:28:59;19.10;99.90
35593;DHT22;64447;52.140;5.602;2023-07-31T10:31:28;19.00;99.90
35593;DHT22;64447;52.140;5.602;2023-07-31T10:33:55;19.10;99.90
35593;DHT22;64447;52.140;5.602;2023-07-31T10:36:21;19.20;99.90
35593;DHT22;64447;52.140;5.602;2023-07-31T10:38:50;19.00;99.90
35593;DHT22;64447;52.140;5.602;2023-07-31T10:41:18;19.00;99.90
35593;DHT22;64447;52.140;5.602;2023-07-31T10:43:46;19.00;99.90
35593;DHT22;64447;52.140;5.602;2023-07-31T10:46:13;19.10;99.90
35593;DHT22;64447;52.140;5.602;2023-07-31T10:48:40;18.80;99.90
35593;DHT22;64447;52.140;5.602;2023-07-31T10:51:10;18.80;99.90
35593;DHT22;64447;52.140;5.602;2023-07-31T10:56:38;18.70;99.90
35593;DHT22;64447;52.140;5.602;2023-07-31T10:59:05;18.80;99.90
35593;DHT22;64447;52.140;5.602;2023-07-31T11:01:50;18.80;99.90
35593;DHT22;64447;52.140;5.602;2023-07-31T11:04:17;18.80;99.90
35593;DHT22;64447;52.140;5.602;2023-07-31T11:06:55;18.90;99.90
35593;DHT22;64447;52.140;5.602;2023-07-31T11:09:20;18.80;99.90
35593;DHT22;64447;52.140;5.602;2023-07-31T11:11:46;18.80;99.90
35593;DHT22;64447;52.140;5.602;2023-07-31T11:14:11;18.80;99.90
35593;DHT22;64447;52.140;5.602;2023-07-31T11:16:37;18.80;99.90
35593;DHT22;64447;52.140;5.602;2023-07-31T11:19:02;18.80;99.90
35593;DHT22;64447;52.140;5.602;2023-07-31T11:21:33;18.80;99.90
35593;DHT22;64447;52.140;5.602;2023-07-31T11:23:58;18.80;99.90
35593;DHT22;64447;52.140;5.602;2023-07-31T11:26:24;18.90;99.90
35593;DHT22;64447;52.140;5.602;2023-07-31T11:28:50;18.90;99.90
35593;DHT22;64447;52.140;5.602;2023-07-31T11:31:16;18.80;99.90
35593;DHT22;64447;52.140;5.602;2023-07-31T11:33:41;18.80;99.90
35593;DHT22;64447;52.140;5.602;2023-07-31T11:36:13;18.80;99.90
35593;DHT22;64447;52.140;5.602;2023-07-31T11:41:42;18.80;99.90
35593;DHT22;64447;52.140;5.602;2023-07-31T11:44:08;18.70;99.90
35593;DHT22;64447;52.140;5.602;2023-07-31T11:46:33;18.70;99.90
35593;DHT22;64447;52.140;5.602;2023-07-31T11:48:59;18.70;99.90
35593;DHT22;64447;52.140;5.602;2023-07-31T11:51:25;18.80;99.90
35593;DHT22;64447;52.140;5.602;2023-07-31T11:57:12;18.60;99.90
35593;DHT22;64447;52.140;5.602;2023-07-31T11:59:38;18.70;99.90
35593;DHT22;64447;52.140;5.602;2023-07-31T12:02:04;18.70;99.90
35593;DHT22;64447;52.140;5.602;2023-07-31T12:04:29;18.60;99.90
35593;DHT22;64447;52.140;5.602;2023-07-31T12:06:55;18.60;99.90
35593;DHT22;64447;52.140;5.602;2023-07-31T12:09:22;18.70;99.90
35593;DHT22;64447;52.140;5.602;2023-07-31T12:11:48;18.70;99.90
35593;DHT22;64447;52.140;5.602;2023-07-31T12:14:21;18.70;99.90
35593;DHT22;64447;52.140;5.602;2023-07-31T12:16:53;18.70;99.90
35593;DHT22;64447;52.140;5.602;2023-07-31T12:19:19;18.70;99.90
35593;DHT22;64447;52.140;5.602;2023-07-31T12:21:45;18.70;99.90
35593;DHT22;64447;52.140;5.602;2023-07-31T12:24:10;18.70;99.90
35593;DHT22;64447;52.140;5.602;2023-07-31T12:26:36;18.80;99.90
35593;DHT22;64447;52.140;5.602;2023-07-31T12:29:01;18.80;99.90
35593;DHT22;64447;52.140;5.602;2023-07-31T12:31:27;18.90;99.90
35593;DHT22;64447;52.140;5.602;2023-07-31T12:33:54;19.00;99.90
35593;DHT22;64447;52.140;5.602;2023-07-31T12:36:21;19.00;99.90
35593;DHT22;64447;52.140;5.602;2023-07-31T12:42:09;19.10;99.90
35593;DHT22;64447;52.140;5.602;2023-07-31T12:44:34;19.10;99.90
35593;DHT22;64447;52.140;5.602;2023-07-31T12:47:00;19.10;99.90
35593;DHT22;64447;52.140;5.602;2023-07-31T12:49:26;19.10;99.90
35593;DHT22;64447;52.140;5.602;2023-07-31T12:51:51;19.10;99.90
35593;DHT22;64447;52.140;5.602;2023-07-31T12:54:17;19.10;99.90
35593;DHT22;64447;52.140;5.602;2023-07-31T12:56:42;19.00;99.90
35593;DHT22;64447;52.140;5.602;2023-07-31T12:59:08;19.10;99.90
35593;DHT22;64447;52.140;5.602;2023-07-31T13:01:34;19.10;99.90
35593;DHT22;64447;52.140;5.602;2023-07-31T13:04:00;19.20;99.90
35593;DHT22;64447;52.140;5.602;2023-07-31T13:06:25;19.40;99.90
35593;DHT22;64447;52.140;5.602;2023-07-31T13:11:54;19.40;99.90
35593;DHT22;64447;52.140;5.602;2023-07-31T13:14:19;19.30;99.90
35593;DHT22;64447;52.140;5.602;2023-07-31T13:16:45;19.30;99.90
35593;DHT22;64447;52.140;5.602;2023-07-31T13:19:10;19.70;99.90
35593;DHT22;64447;52.140;5.602;2023-07-31T13:21:36;19.40;99.90
35593;DHT22;64447;52.140;5.602;2023-07-31T13:27:05;19.40;99.90
35593;DHT22;64447;52.140;5.602;2023-07-31T13:29:30;19.50;99.90
35593;DHT22;64447;52.140;5.602;2023-07-31T13:31:57;19.50;99.90
35593;DHT22;64447;52.140;5.602;2023-07-31T13:34:23;19.60;99.90
35593;DHT22;64447;52.140;5.602;2023-07-31T13:36:48;19.70;99.90
35593;DHT22;64447;52.140;5.602;2023-07-31T13:39:14;19.90;99.90
35593;DHT22;64447;52.140;5.602;2023-07-31T13:41:40;20.10;99.90
35593;DHT22;64447;52.140;5.602;2023-07-31T13:44:05;20.10;99.90
35593;DHT22;64447;52.140;5.602;2023-07-31T13:46:31;20.30;99.90
35593;DHT22;64447;52.140;5.602;2023-07-31T13:48:58;20.40;99.90
35593;DHT22;64447;52.140;5.602;2023-07-31T13:51:25;20.20;99.90
35593;DHT22;64447;52.140;5.602;2023-07-31T13:56:53;20.00;99.90
35593;DHT22;64447;52.140;5.602;2023-07-31T13:59:19;19.70;99.90
35593;DHT22;64447;52.140;5.602;2023-07-31T14:01:45;19.40;99.90
35593;DHT22;64447;52.140;5.602;2023-07-31T14:04:11;19.40;99.90
35593;DHT22;64447;52.140;5.602;2023-07-31T14:06:37;19.20;99.90
35593;DHT22;64447;52.140;5.602;2023-07-31T14:12:05;19.10;99.90
35593;DHT22;64447;52.140;5.602;2023-07-31T14:14:31;18.90;99.90
35593;DHT22;64447;52.140;5.602;2023-07-31T14:16:59;18.90;99.90
35593;DHT22;64447;52.140;5.602;2023-07-31T14:19:24;18.90;99.90
35593;DHT22;64447;52.140;5.602;2023-07-31T14:21:50;18.90;99.90
35593;DHT22;64447;52.140;5.602;2023-07-31T14:24:15;18.90;99.90
35593;DHT22;64447;52.140;5.602;2023-07-31T14:26:41;18.80;99.90
35593;DHT22;64447;52.140;5.602;2023-07-31T14:29:06;18.70;99.90
35593;DHT22;64447;52.140;5.602;2023-07-31T14:31:32;18.70;99.90
35593;DHT22;64447;52.140;5.602;2023-07-31T14:33:57;18.70;99.90
35593;DHT22;64447;52.140;5.602;2023-07-31T14:36:23;18.80;99.90
35593;DHT22;64447;52.140;5.602;2023-07-31T14:41:51;18.80;99.90
35593;DHT22;64447;52.140;5.602;2023-07-31T14:44:17;18.80;99.90
35593;DHT22;64447;52.140;5.602;2023-07-31T14:46:42;18.70;99.90
35593;DHT22;64447;52.140;5.602;2023-07-31T14:49:08;18.80;99.90
35593;DHT22;64447;52.140;5.602;2023-07-31T14:51:33;18.80;99.90
35593;DHT22;64447;52.140;5.602;2023-07-31T14:57:02;18.80;99.90
35593;DHT22;64447;52.140;5.602;2023-07-31T14:59:27;18.80;99.90
35593;DHT22;64447;52.140;5.602;2023-07-31T15:01:53;18.70;99.90
35593;DHT22;64447;52.140;5.602;2023-07-31T15:04:18;18.70;99.90
35593;DHT22;64447;52.140;5.602;2023-07-31T15:06:44;18.70;99.90
35593;DHT22;64447;52.140;5.602;2023-07-31T15:12:12;18.70;99.90
35593;DHT22;64447;52.140;5.602;2023-07-31T15:14:38;18.70;99.90
35593;DHT22;64447;52.140;5.602;2023-07-31T15:17:03;18.80;99.90
35593;DHT22;64447;52.140;5.602;2023-07-31T15:19:29;18.90;99.90
35593;DHT22;64447;52.140;5.602;2023-07-31T15:21:55;18.90;99.90
35593;DHT22;64447;52.140;5.602;2023-07-31T15:27:23;18.70;99.90
35593;DHT22;64447;52.140;5.602;2023-07-31T15:29:49;18.60;99.90
35593;DHT22;64447;52.140;5.602;2023-07-31T15:32:16;18.60;99.90
35593;DHT22;64447;52.140;5.602;2023-07-31T15:34:43;18.60;99.90
35593;DHT22;64447;52.140;5.602;2023-07-31T15:37:08;18.60;99.90
35593;DHT22;64447;52.140;5.602;2023-07-31T15:42:37;18.70;99.90
35593;DHT22;64447;52.140;5.602;2023-07-31T15:45:05;18.70;99.90
35593;DHT22;64447;52.140;5.602;2023-07-31T15:47:31;18.70;99.90
35593;DHT22;64447;52.140;5.602;2023-07-31T15:49:56;18.60;99.90
35593;DHT22;64447;52.140;5.602;2023-07-31T15:52:22;18.50;99.90
35593;DHT22;64447;52.140;5.602;2023-07-31T15:57:50;18.50;99.90
35593;DHT22;64447;52.140;5.602;2023-07-31T16:00:16;18.50;99.90
35593;DHT22;64447;52.140;5.602;2023-07-31T16:02:42;18.50;99.90
35593;DHT22;64447;52.140;5.602;2023-07-31T16:05:08;18.50;99.90
35593;DHT22;64447;52.140;5.602;2023-07-31T16:07:33;18.50;99.90
35593;DHT22;64447;52.140;5.602;2023-07-31T16:13:01;18.50;99.90
35593;DHT22;64447;52.140;5.602;2023-07-31T16:15:28;18.50;99.90
35593;DHT22;64447;52.140;5.602;2023-07-31T16:17:54;18.50;99.90
35593;DHT22;64447;52.140;5.602;2023-07-31T16:20:20;18.50;99.90
35593;DHT22;64447;52.140;5.602;2023-07-31T16:22:45;18.40;99.90
35593;DHT22;64447;52.140;5.602;2023-07-31T16:28:15;18.40;99.90
35593;DHT22;64447;52.140;5.602;2023-07-31T16:30:51;18.40;99.90
35593;DHT22;64447;52.140;5.602;2023-07-31T16:33:17;18.30;99.90
35593;DHT22;64447;52.140;5.602;2023-07-31T16:35:42;18.50;99.90
35593;DHT22;64447;52.140;5.602;2023-07-31T16:38:08;18.30;99.90
35593;DHT22;64447;52.140;5.602;2023-07-31T16:49:15;18.30;99.90
35593;DHT22;64447;52.140;5.602;2023-07-31T16:51:41;18.30;99.90
35593;DHT22;64447;52.140;5.602;2023-07-31T16:54:06;18.30;99.90
35593;DHT22;64447;52.140;5.602;2023-07-31T16:56:32;18.30;99.90
35593;DHT22;64447;52.140;5.602;2023-07-31T16:58:57;18.30;99.90
35593;DHT22;64447;52.140;5.602;2023-07-31T17:01:23;18.30;99.90
35593;DHT22;64447;52.140;5.602;2023-07-31T17:03:55;18.30;99.90
35593;DHT22;64447;52.140;5.602;2023-07-31T17:06:21;18.30;99.90
35593;DHT22;64447;52.140;5.602;2023-07-31T17:08:46;18.30;99.90
35593;DHT22;64447;52.140;5.602;2023-07-31T17:11:12;18.30;99.90
35593;DHT22;64447;52.140;5.602;2023-07-31T17:13:37;18.30;99.90
35593;DHT22;64447;52.140;5.602;2023-07-31T17:16:03;18.30;99.90
35593;DHT22;64447;52.140;5.602;2023-07-31T17:18:28;18.20;99.90
35593;DHT22;64447;52.140;5.602;2023-07-31T17:20:54;18.20;99.90
35593;DHT22;64447;52.140;5.602;2023-07-31T17:23:19;18.20;99.90
35593;DHT22;64447;52.140;5.602;2023-07-31T17:25:45;18.10;99.90
35593;DHT22;64447;52.140;5.602;2023-07-31T17:28:10;18.10;99.90
35593;DHT22;64447;52.140;5.602;2023-07-31T17:30:36;18.10;99.90
35593;DHT22;64447;52.140;5.602;2023-07-31T17:33:01;18.10;99.90
35593;DHT22;64447;52.140;5.602;2023-07-31T17:35:27;18.20;99.90
35593;DHT22;64447;52.140;5.602;2023-07-31T17:37:53;18.30;99.90
35593;DHT22;64447;52.140;5.602;2023-07-31T17:40:18;18.40;99.90
35593;DHT22;64447;52.140;5.602;2023-07-31T17:42:44;18.50;99.90
35593;DHT22;64447;52.140;5.602;2023-07-31T17:45:10;18.50;99.90
35593;DHT22;64447;52.140;5.602;2023-07-31T17:47:35;18.40;99.90
35593;DHT22;64447;52.140;5.602;2023-07-31T17:50:01;18.60;99.90
35593;DHT22;64447;52.140;5.602;2023-07-31T17:52:27;18.50;99.90
35593;DHT22;64447;52.140;5.602;2023-07-31T17:54:52;18.50;99.90